createdAt,value
2019-02-26T00:01:04.799Z,34.43
2019-02-26T00:03:35.047Z,33.63
2019-02-26T00:06:03.775Z,34.20
2019-02-26T00:08:33.494Z,35.30
2019-02-26T00:11:03.725Z,35.40
2019-02-26T00:13:34.089Z,36.33
2019-02-26T00:16:05.617Z,36.50
2019-02-26T00:18:32.728Z,35.83
2019-02-26T00:21:02.818Z,35.10
2019-02-26T00:23:31.164Z,36.70
2019-02-26T00:26:00.635Z,36.37
2019-02-26T00:28:29.004Z,36.43
2019-02-26T00:30:59.366Z,36.20
2019-02-26T00:33:28.986Z,36.30
2019-02-26T00:35:57.336Z,35.73
2019-02-26T00:38:25.706Z,35.33
2019-02-26T00:40:55.090Z,35.30
2019-02-26T00:43:27.412Z,34.20
2019-02-26T00:45:57.971Z,31.70
2019-02-26T00:48:25.507Z,30.50
2019-02-26T00:50:54.394Z,29.87
2019-02-26T00:53:25.865Z,28.40
2019-02-26T00:55:54.364Z,26.27
2019-02-26T00:58:24.158Z,27.43
2019-02-26T01:00:52.467Z,26.57
2019-02-26T01:03:20.801Z,24.40
2019-02-26T01:05:49.054Z,22.30
2019-02-26T01:08:19.295Z,22.47
2019-02-26T01:10:47.764Z,25.27
2019-02-26T01:13:17.223Z,24.37
2019-02-26T01:15:45.545Z,24.93
2019-02-26T01:18:13.917Z,23.30
2019-02-26T01:20:42.204Z,23.13
2019-02-26T01:23:10.562Z,23.60
2019-02-26T01:25:38.860Z,22.73
2019-02-26T01:28:07.341Z,24.77
2019-02-26T01:30:36.217Z,24.23
2019-02-26T01:33:05.579Z,24.13
2019-02-26T01:35:35.657Z,25.37
2019-02-26T01:38:09.149Z,25.00
2019-02-26T01:40:39.439Z,25.10
2019-02-26T01:43:07.606Z,20.40
2019-02-26T01:45:35.987Z,28.47
2019-02-26T01:48:06.290Z,26.93
2019-02-26T01:50:35.644Z,25.13
2019-02-26T01:53:04.793Z,27.03
2019-02-26T01:55:33.183Z,26.17
2019-02-26T01:58:01.590Z,28.47
2019-02-26T02:00:30.057Z,23.73
2019-02-26T02:02:58.299Z,29.03
2019-02-26T02:06:02.899Z,31.00
2019-02-26T02:08:50.653Z,30.57
2019-02-26T02:11:23.427Z,29.43
2019-02-26T02:13:50.966Z,30.57
2019-02-26T02:19:20.271Z,27.67
2019-02-26T02:21:49.482Z,29.10
2019-02-26T02:24:20.525Z,28.83
2019-02-26T02:26:50.434Z,26.17
2019-02-26T02:29:21.504Z,24.10
2019-02-26T02:31:49.869Z,24.17
2019-02-26T02:34:18.472Z,22.63
2019-02-26T02:36:46.906Z,23.47
2019-02-26T02:39:16.234Z,22.57
2019-02-26T02:41:48.081Z,23.63
2019-02-26T02:44:17.880Z,21.47
2019-02-26T02:46:46.657Z,21.17
2019-02-26T02:49:17.615Z,20.97
2019-02-26T02:51:45.428Z,20.93
2019-02-26T02:54:15.446Z,19.97
2019-02-26T02:56:44.381Z,20.30
2019-02-26T02:59:14.120Z,19.70
2019-02-26T03:01:45.530Z,18.80
2019-02-26T03:04:17.291Z,19.90
2019-02-26T03:06:43.488Z,18.57
2019-02-26T03:09:15.298Z,18.30
2019-02-26T03:11:46.053Z,19.57
2019-02-26T03:14:16.059Z,19.37
2019-02-26T03:16:45.582Z,19.10
2019-02-26T03:19:14.621Z,19.50
2019-02-26T03:21:45.420Z,20.40
2019-02-26T03:24:14.489Z,20.73
2019-02-26T03:26:42.849Z,21.13
2019-02-26T03:29:11.122Z,25.13
2019-02-26T03:31:40.546Z,24.53
2019-02-26T03:34:14.620Z,27.37
2019-02-26T03:36:40.814Z,28.90
2019-02-26T03:39:12.213Z,31.40
2019-02-26T03:41:40.598Z,31.70
2019-02-26T03:44:09.093Z,31.43
2019-02-26T03:46:37.455Z,30.40
2019-02-26T03:49:05.871Z,31.40
2019-02-26T03:51:34.120Z,31.03
2019-02-26T03:54:02.502Z,32.00
2019-02-26T03:56:31.056Z,33.20
2019-02-26T03:59:00.214Z,35.57
2019-02-26T04:01:30.012Z,36.60
2019-02-26T04:03:59.870Z,37.90
2019-02-26T04:06:30.508Z,39.77
2019-02-26T04:08:58.968Z,40.43
2019-02-26T04:11:27.822Z,36.63
2019-02-26T04:13:56.736Z,35.97
2019-02-26T04:16:26.509Z,37.97
2019-02-26T04:18:54.746Z,35.67
2019-02-26T04:21:23.161Z,36.80
2019-02-26T04:23:51.767Z,35.20
2019-02-26T04:26:48.232Z,36.00
2019-02-26T04:29:22.031Z,35.97
2019-02-26T04:32:11.868Z,35.13
2019-02-26T04:34:45.082Z,36.10
2019-02-26T04:37:53.005Z,35.77
2019-02-26T04:40:41.843Z,34.47
2019-02-26T04:43:36.023Z,34.93
2019-02-26T04:46:28.865Z,36.97
2019-02-26T04:48:56.664Z,36.17
2019-02-26T04:51:25.059Z,36.57
2019-02-26T04:53:54.177Z,36.50
2019-02-26T04:56:23.846Z,33.60
2019-02-26T04:58:52.542Z,32.33
2019-02-26T05:01:21.189Z,30.97
2019-02-26T05:03:49.682Z,32.17
2019-02-26T05:06:18.328Z,32.00
2019-02-26T05:08:47.208Z,32.50
2019-02-26T05:11:30.819Z,31.23
2019-02-26T05:13:46.299Z,32.20
2019-02-26T05:16:15.296Z,32.70
2019-02-26T05:18:47.039Z,31.60
2019-02-26T05:21:14.955Z,32.50
2019-02-26T05:23:43.280Z,33.00
2019-02-26T05:26:15.252Z,32.50
2019-02-26T05:28:44.220Z,33.17
2019-02-26T05:31:15.146Z,32.27
2019-02-26T05:33:43.517Z,31.77
2019-02-26T05:36:20.952Z,33.17
2019-02-26T05:38:51.689Z,32.23
2019-02-26T05:41:21.923Z,32.87
2019-02-26T05:43:55.280Z,32.93
2019-02-26T05:46:22.167Z,34.13
2019-02-26T05:48:51.165Z,36.37
2019-02-26T05:51:19.574Z,34.63
2019-02-26T05:53:47.915Z,35.10
2019-02-26T05:56:17.167Z,34.10
2019-02-26T05:58:46.974Z,34.17
2019-02-26T06:01:18.468Z,35.53
2019-02-26T06:03:46.763Z,31.53
2019-02-26T06:06:15.963Z,27.20
2019-02-26T06:08:44.524Z,26.77
2019-02-26T06:11:12.967Z,25.60
2019-02-26T06:13:43.238Z,24.23
2019-02-26T06:16:11.558Z,25.37
2019-02-26T06:18:41.979Z,26.30
2019-02-26T06:21:10.418Z,23.80
2019-02-26T06:23:39.407Z,24.10
2019-02-26T06:26:13.262Z,23.20
2019-02-26T06:28:40.983Z,23.57
2019-02-26T06:31:11.556Z,25.17
2019-02-26T06:33:40.809Z,28.60
2019-02-26T06:36:09.588Z,31.20
2019-02-26T06:38:37.967Z,33.30
2019-02-26T06:41:06.412Z,29.83
2019-02-26T06:43:39.699Z,31.27
2019-02-26T06:46:11.158Z,30.33
2019-02-26T06:48:37.902Z,31.60
2019-02-26T06:51:07.201Z,32.73
2019-02-26T06:53:35.812Z,27.30
2019-02-26T06:56:04.208Z,26.50
2019-02-26T06:58:32.563Z,25.73
2019-02-26T07:01:01.103Z,25.75
2019-02-26T07:03:29.489Z,27.80
2019-02-26T07:06:01.619Z,28.60
2019-02-26T07:08:30.414Z,28.27
2019-02-26T07:10:58.081Z,28.37
2019-02-26T07:13:26.428Z,30.75
2019-02-26T07:15:54.727Z,29.07
2019-02-26T07:18:23.299Z,31.03
2019-02-26T07:20:54.577Z,31.50
2019-02-26T07:23:21.911Z,30.43
2019-02-26T07:25:50.143Z,28.47
2019-02-26T07:28:20.621Z,29.12
2019-02-26T07:30:48.698Z,27.93
2019-02-26T07:33:17.152Z,25.93
2019-02-26T07:35:45.661Z,27.13
2019-02-26T07:38:16.208Z,27.13
2019-02-26T07:40:44.755Z,22.93
2019-02-26T07:43:15.393Z,25.30
2019-02-26T07:45:46.255Z,24.63
2019-02-26T07:48:18.569Z,23.57
2019-02-26T07:50:47.767Z,23.38
2019-02-26T07:53:17.189Z,14.80
2019-02-26T07:55:44.998Z,14.83
2019-02-26T07:58:15.484Z,16.90
2019-02-26T08:00:47.793Z,17.12
2019-02-26T08:03:13.795Z,16.63
2019-02-26T08:05:42.123Z,17.13
2019-02-26T08:08:12.069Z,17.20
2019-02-26T08:10:42.817Z,17.67
2019-02-26T08:13:11.169Z,18.33
2019-02-26T08:15:39.943Z,18.83
2019-02-26T08:18:08.447Z,23.60
2019-02-26T08:20:37.599Z,24.50
2019-02-26T08:23:06.965Z,25.87
2019-02-26T08:25:35.308Z,26.23
2019-02-26T08:28:03.694Z,27.47
2019-02-26T08:30:32.258Z,27.80
2019-02-26T08:33:02.679Z,28.67
2019-02-26T08:35:30.811Z,29.37
2019-02-26T08:37:59.250Z,30.33
2019-02-26T08:40:27.700Z,30.23
2019-02-26T08:42:56.146Z,31.20
2019-02-26T08:45:25.842Z,31.47
2019-02-26T08:47:57.394Z,30.70
2019-02-26T08:50:28.506Z,31.83
2019-02-26T08:52:58.499Z,31.93
2019-02-26T08:55:26.403Z,30.17
2019-02-26T08:57:56.420Z,30.23
2019-02-26T09:00:24.818Z,30.57
2019-02-26T09:02:56.352Z,30.90
2019-02-26T09:05:26.342Z,30.03
2019-02-26T09:07:55.907Z,27.53
2019-02-26T09:10:24.341Z,28.60
2019-02-26T09:12:52.806Z,29.57
2019-02-26T09:15:21.425Z,29.83
2019-02-26T09:17:49.863Z,29.37
2019-02-26T09:20:18.284Z,31.17
2019-02-26T09:22:50.201Z,29.90
2019-02-26T09:25:16.830Z,27.37
2019-02-26T09:27:45.102Z,27.15
2019-02-26T09:30:16.151Z,22.83
2019-02-26T09:32:44.917Z,20.17
2019-02-26T09:35:16.277Z,20.90
2019-02-26T09:37:45.370Z,20.23
2019-02-26T09:40:14.451Z,21.93
2019-02-26T09:42:43.900Z,21.70
2019-02-26T09:45:15.899Z,22.30
2019-02-26T09:47:44.915Z,22.42
2019-02-26T09:50:15.976Z,21.73
2019-02-26T09:52:47.251Z,18.97
2019-02-26T09:55:15.409Z,18.17
2019-02-26T09:57:44.154Z,20.23
2019-02-26T10:00:18.895Z,20.48
2019-02-26T10:02:49.557Z,21.17
2019-02-26T10:05:18.345Z,23.92
2019-02-26T10:07:47.753Z,25.17
2019-02-26T10:10:16.643Z,24.20
2019-02-26T10:12:44.842Z,23.33
2019-02-26T10:15:13.741Z,22.67
2019-02-26T10:17:42.843Z,24.07
2019-02-26T10:20:13.366Z,24.13
2019-02-26T10:22:41.831Z,25.57
2019-02-26T10:25:10.545Z,26.00
2019-02-26T10:27:41.247Z,26.73
2019-02-26T10:30:13.015Z,25.80
2019-02-26T10:32:40.598Z,27.40
2019-02-26T10:35:14.000Z,26.70
2019-02-26T10:37:43.952Z,25.90
2019-02-26T10:40:14.351Z,25.87
2019-02-26T10:42:42.597Z,25.77
2019-02-26T10:45:11.255Z,26.53
2019-02-26T10:47:39.630Z,25.53
2019-02-26T10:50:10.130Z,27.23
2019-02-26T10:52:40.658Z,27.00
2019-02-26T10:55:12.815Z,26.23
2019-02-26T10:57:39.467Z,25.90
2019-02-26T11:00:11.197Z,28.27
2019-02-26T11:02:43.218Z,32.70
2019-02-26T11:05:14.098Z,27.53
2019-02-26T11:07:41.766Z,28.13
2019-02-26T11:10:11.931Z,26.03
2019-02-26T11:12:40.512Z,26.43
2019-02-26T11:15:09.295Z,26.33
2019-02-26T11:17:37.886Z,25.73
2019-02-26T11:20:07.783Z,25.27
2019-02-26T11:22:36.442Z,25.73
2019-02-26T11:25:04.830Z,25.37
2019-02-26T11:27:35.247Z,25.17
2019-02-26T11:30:05.102Z,26.43
2019-02-26T11:32:37.953Z,27.07
2019-02-26T11:35:05.961Z,26.57
2019-02-26T11:37:34.410Z,26.12
2019-02-26T11:40:05.120Z,26.77
2019-02-26T11:42:33.125Z,26.60
2019-02-26T11:45:01.372Z,22.47
2019-02-26T11:47:32.146Z,26.43
2019-02-26T11:50:02.028Z,27.40
2019-02-26T11:52:33.796Z,28.67
2019-02-26T11:55:05.813Z,28.80
2019-02-26T11:57:34.910Z,29.37
2019-02-26T12:00:04.351Z,28.40
2019-02-26T12:02:34.404Z,29.43
2019-02-26T12:05:05.466Z,28.37
2019-02-26T12:07:34.852Z,28.40
2019-02-26T12:10:09.317Z,28.57
2019-02-26T12:12:36.155Z,28.40
2019-02-26T12:15:06.626Z,30.57
2019-02-26T12:17:36.771Z,30.77
2019-02-26T12:20:05.274Z,28.87
2019-02-26T12:22:33.498Z,29.77
2019-02-26T12:25:04.869Z,31.27
2019-02-26T12:27:31.972Z,29.70
2019-02-26T12:30:00.543Z,31.20
2019-02-26T12:32:29.652Z,30.03
2019-02-26T12:34:57.946Z,31.57
2019-02-26T12:37:26.415Z,32.37
2019-02-26T12:39:55.506Z,64.55
2019-02-26T12:42:25.057Z,31.50
2019-02-26T12:44:53.250Z,32.17
2019-02-26T12:47:24.130Z,31.37
2019-02-26T12:49:51.669Z,33.27
2019-02-26T12:52:21.921Z,31.53
2019-02-26T12:54:51.257Z,39.33
2019-02-26T12:57:23.070Z,43.77
2019-02-26T12:59:49.770Z,35.90
2019-02-26T13:02:20.790Z,32.90
2019-02-26T13:04:51.102Z,31.93
2019-02-26T13:07:18.497Z,33.20
2019-02-26T13:09:50.998Z,34.10
2019-02-26T13:12:20.323Z,32.93
2019-02-26T13:14:48.089Z,32.23
2019-02-26T13:17:18.132Z,43.67
2019-02-26T13:19:49.240Z,33.37
2019-02-26T13:22:20.277Z,32.60
2019-02-26T13:24:48.028Z,33.07
2019-02-26T13:27:16.246Z,33.20
2019-02-26T13:29:53.215Z,36.93
2019-02-26T13:32:17.535Z,34.40
2019-02-26T13:34:45.118Z,33.70
2019-02-26T13:37:13.556Z,32.60
2019-02-26T13:39:45.548Z,39.00
2019-02-26T13:42:13.996Z,33.67
2019-02-26T13:44:42.570Z,32.00
2019-02-26T13:47:11.019Z,34.50
2019-02-26T13:49:39.659Z,33.53
2019-02-26T13:52:08.811Z,32.33
2019-02-26T13:54:37.180Z,32.77
2019-02-26T13:57:05.706Z,31.63
2019-02-26T13:59:34.175Z,32.37
2019-02-26T14:02:02.503Z,32.73
2019-02-26T14:04:31.043Z,29.57
2019-02-26T14:06:59.467Z,30.53
2019-02-26T14:09:28.718Z,29.53
2019-02-26T14:11:57.591Z,30.20
2019-02-26T14:14:45.607Z,29.03
2019-02-26T14:17:16.137Z,28.57
2019-02-26T14:19:45.783Z,28.73
2019-02-26T14:22:14.940Z,30.00
2019-02-26T14:24:45.189Z,27.70
2019-02-26T14:27:14.385Z,28.47
2019-02-26T14:29:43.251Z,28.53
2019-02-26T14:32:14.290Z,28.83
2019-02-26T14:34:43.316Z,30.03
2019-02-26T14:37:12.302Z,28.20
2019-02-26T14:39:41.396Z,31.00
2019-02-26T14:42:10.780Z,30.60
2019-02-26T14:44:39.930Z,31.33
2019-02-26T14:47:08.895Z,30.90
2019-02-26T14:49:37.640Z,31.80
2019-02-26T14:52:06.581Z,32.43
2019-02-26T14:54:35.555Z,34.70
2019-02-26T14:57:04.823Z,35.93
2019-02-26T14:59:34.689Z,37.87
2019-02-26T15:03:24.158Z,37.03
2019-02-26T15:05:54.830Z,36.50
2019-02-26T15:08:24.070Z,39.57
2019-02-26T15:10:53.142Z,39.90
2019-02-26T15:13:22.266Z,40.27
2019-02-26T15:15:51.164Z,44.80
2019-02-26T15:18:20.150Z,40.17
2019-02-26T15:20:49.449Z,43.67
2019-02-26T15:23:18.946Z,42.23
2019-02-26T15:25:47.740Z,42.70
2019-02-26T15:28:16.651Z,40.50
2019-02-26T15:30:45.597Z,43.83
2019-02-26T15:33:14.374Z,42.83
2019-02-26T15:35:43.802Z,44.10
2019-02-26T15:38:12.753Z,42.83
2019-02-26T15:40:41.880Z,43.20
2019-02-26T15:43:10.751Z,42.73
2019-02-26T15:45:39.785Z,41.20
2019-02-26T15:48:08.777Z,44.80
2019-02-26T15:50:40.238Z,42.97
2019-02-26T15:53:09.183Z,41.87
2019-02-26T15:55:37.916Z,41.67
2019-02-26T15:58:06.987Z,40.63
2019-02-26T16:00:37.901Z,40.03
2019-02-26T16:03:06.724Z,38.37
2019-02-26T16:05:36.065Z,38.30
2019-02-26T16:08:05.426Z,39.00
2019-02-26T16:10:35.368Z,40.17
2019-02-26T16:13:04.638Z,47.37
2019-02-26T16:15:34.314Z,46.73
2019-02-26T16:18:03.443Z,44.23
2019-02-26T16:20:32.449Z,39.70
2019-02-26T16:23:01.040Z,39.43
2019-02-26T16:25:30.119Z,39.63
2019-02-26T16:27:59.309Z,39.40
2019-02-26T16:30:28.306Z,39.67
2019-02-26T16:32:57.397Z,44.43
2019-02-26T16:35:26.184Z,44.30
2019-02-26T16:37:56.637Z,66.47
2019-02-26T16:40:25.640Z,167.40
2019-02-26T16:42:55.521Z,82.73
2019-02-26T16:45:25.519Z,70.85
2019-02-26T16:47:54.732Z,65.53
2019-02-26T16:50:24.550Z,59.90
2019-02-26T16:52:54.282Z,53.10
2019-02-26T16:55:23.360Z,55.67
2019-02-26T16:57:53.417Z,54.10
2019-02-26T17:00:23.517Z,55.40
2019-02-26T17:02:53.324Z,58.83
2019-02-26T17:05:22.669Z,71.27
2019-02-26T17:07:52.008Z,62.27
2019-02-26T17:10:21.078Z,57.37
2019-02-26T17:12:52.658Z,55.17
2019-02-26T17:15:54.292Z,52.33
2019-02-26T17:19:15.298Z,51.43
2019-02-26T17:25:38.929Z,53.07
2019-02-26T17:28:09.458Z,50.53
2019-02-26T17:30:39.825Z,49.37
2019-02-26T17:33:11.677Z,54.83
2019-02-26T17:35:41.536Z,54.77
2019-02-26T17:38:12.819Z,53.10
2019-02-26T17:40:42.516Z,54.63
2019-02-26T17:43:12.601Z,51.83
2019-02-26T17:45:42.133Z,51.30
2019-02-26T17:48:11.102Z,54.67
2019-02-26T17:50:40.196Z,54.80
2019-02-26T17:53:11.028Z,56.07
2019-02-26T17:55:39.919Z,60.77
2019-02-26T17:58:10.592Z,69.10
2019-02-26T18:00:41.448Z,69.13
2019-02-26T18:03:10.604Z,62.77
2019-02-26T18:05:50.614Z,75.70
2019-02-26T18:08:10.409Z,67.17
2019-02-26T18:10:39.256Z,65.10
2019-02-26T18:13:08.158Z,64.93
2019-02-26T18:15:37.121Z,64.50
2019-02-26T18:18:05.868Z,67.77
2019-02-26T18:20:35.065Z,68.10
2019-02-26T18:23:04.260Z,73.67
2019-02-26T18:25:33.792Z,79.13
2019-02-26T18:28:03.683Z,74.17
2019-02-26T18:30:32.682Z,71.67
2019-02-26T18:33:01.360Z,70.70
2019-02-26T18:35:30.936Z,73.73
2019-02-26T18:37:59.751Z,78.83
2019-02-26T18:40:29.040Z,79.23
2019-02-26T18:42:58.248Z,88.37
2019-02-26T18:45:27.914Z,82.27
2019-02-26T18:47:58.526Z,74.00
2019-02-26T18:50:29.343Z,78.50
2019-02-26T18:52:58.721Z,67.70
2019-02-26T18:55:28.452Z,69.40
2019-02-26T18:57:58.885Z,74.77
2019-02-26T19:00:27.751Z,78.67
2019-02-26T19:02:57.220Z,77.73
2019-02-26T19:05:27.086Z,74.27
2019-02-26T19:07:56.262Z,71.57
2019-02-26T19:10:25.669Z,68.70
2019-02-26T19:12:54.964Z,67.50
2019-02-26T19:15:24.225Z,66.03
2019-02-26T19:17:57.029Z,67.70
2019-02-26T19:20:28.116Z,67.10
2019-02-26T19:22:58.873Z,70.50
2019-02-26T19:25:29.586Z,64.13
2019-02-26T19:27:59.786Z,65.27
2019-02-26T19:30:30.018Z,54.43
2019-02-26T19:33:00.098Z,55.00
2019-02-26T19:35:30.017Z,57.47
2019-02-26T19:38:00.183Z,53.00
2019-02-26T19:40:38.696Z,46.67
2019-02-26T19:43:06.437Z,49.17
2019-02-26T19:45:36.797Z,61.97
2019-02-26T19:48:06.920Z,57.53
2019-02-26T19:50:36.416Z,60.83
2019-02-26T19:53:06.201Z,57.10
2019-02-26T19:55:36.398Z,63.60
2019-02-26T19:58:07.022Z,58.10
2019-02-26T20:00:38.089Z,55.90
2019-02-26T20:03:08.386Z,53.73
2019-02-26T20:05:37.874Z,51.90
2019-02-26T20:08:07.743Z,53.33
2019-02-26T20:10:37.024Z,53.37
2019-02-26T20:13:12.286Z,54.63
2019-02-26T20:15:37.237Z,55.57
2019-02-26T20:18:06.576Z,56.10
2019-02-26T20:20:40.899Z,56.80
2019-02-26T20:23:07.141Z,55.43
2019-02-26T20:25:36.942Z,54.47
2019-02-26T20:28:06.787Z,52.73
2019-02-26T20:30:36.230Z,52.23
2019-02-26T20:33:05.496Z,51.10
2019-02-26T20:35:38.875Z,51.33
2019-02-26T20:38:08.834Z,59.77
2019-02-26T20:41:27.333Z,56.63
2019-02-26T20:44:00.067Z,54.63
2019-02-26T20:46:29.178Z,54.40
2019-02-26T20:48:58.336Z,57.83
2019-02-26T20:51:27.702Z,55.77
2019-02-26T20:53:56.751Z,62.93
2019-02-26T20:56:25.450Z,77.83
2019-02-26T20:58:54.105Z,76.70
2019-02-26T21:01:22.695Z,62.90
2019-02-26T21:05:10.585Z,62.40
2019-02-26T21:08:32.077Z,53.10
2019-02-26T21:11:01.064Z,47.23
2019-02-26T21:13:30.057Z,42.10
2019-02-26T21:15:58.946Z,34.70
2019-02-26T21:18:30.245Z,35.67
2019-02-26T21:20:58.798Z,38.20
2019-02-26T21:23:28.320Z,36.47
2019-02-26T21:25:57.634Z,37.30
2019-02-26T21:28:26.238Z,37.20
2019-02-26T21:30:55.229Z,37.93
2019-02-26T21:33:24.375Z,33.47
2019-02-26T21:35:54.330Z,33.93
2019-02-26T21:38:24.044Z,35.27
2019-02-26T21:40:52.869Z,37.10
2019-02-26T21:43:21.869Z,38.90
2019-02-26T21:45:50.750Z,38.60
2019-02-26T21:48:19.841Z,36.70
2019-02-26T21:50:48.849Z,40.60
2019-02-26T21:53:17.760Z,39.67
2019-02-26T21:55:46.617Z,39.87
2019-02-26T21:58:15.572Z,37.90
2019-02-26T22:00:44.457Z,37.57
2019-02-26T22:03:14.307Z,37.43
2019-02-26T22:05:43.305Z,39.67
2019-02-26T22:08:12.407Z,42.30
2019-02-26T22:10:42.853Z,44.13
2019-02-26T22:13:11.940Z,51.10
2019-02-26T22:15:42.146Z,46.00
2019-02-26T22:18:11.637Z,44.63
2019-02-26T22:20:40.839Z,40.97
2019-02-26T22:23:09.829Z,42.03
2019-02-26T22:25:38.921Z,41.90
2019-02-26T22:28:09.232Z,41.70
2019-02-26T22:30:38.237Z,39.43
2019-02-26T22:33:08.021Z,39.27
2019-02-26T22:35:37.530Z,40.50
2019-02-26T22:38:06.225Z,38.13
2019-02-26T22:40:35.131Z,33.63
2019-02-26T22:43:04.021Z,36.80
2019-02-26T22:45:32.936Z,42.67
2019-02-26T22:48:01.810Z,41.23
2019-02-26T22:50:31.014Z,42.17
2019-02-26T22:53:03.786Z,34.77
2019-02-26T22:55:31.442Z,33.60
2019-02-26T22:58:02.532Z,35.13
2019-02-26T23:00:50.733Z,35.13
2019-02-26T23:03:21.783Z,32.83
2019-02-26T23:05:50.658Z,33.23
2019-02-26T23:08:19.748Z,34.07
2019-02-26T23:10:51.252Z,34.80
2019-02-26T23:13:20.369Z,34.67
2019-02-26T23:15:50.310Z,35.63
2019-02-26T23:18:19.946Z,38.13
2019-02-26T23:20:49.201Z,37.17
2019-02-26T23:23:21.667Z,37.77
2019-02-26T23:25:49.249Z,37.50
2019-02-26T23:28:21.705Z,38.87
2019-02-26T23:30:48.973Z,37.37
2019-02-26T23:33:17.761Z,36.07
2019-02-26T23:35:47.526Z,33.77
2019-02-26T23:38:16.360Z,33.90
2019-02-26T23:40:45.423Z,33.77
2019-02-26T23:43:14.439Z,32.53
2019-02-26T23:45:43.031Z,31.27
2019-02-26T23:48:12.150Z,30.80
2019-02-26T23:50:41.121Z,27.97
2019-02-26T23:53:10.313Z,25.37
2019-02-26T23:55:39.307Z,25.77
2019-02-26T23:58:08.094Z,22.90
